createdAt,value
2022-08-09T00:00:19.758Z,3.20
2022-08-09T00:02:51.511Z,3.90
2022-08-09T00:06:19.876Z,3.40
2022-08-09T00:08:31.845Z,3.03
2022-08-09T00:11:05.995Z,3.40
2022-08-09T00:13:53.163Z,3.42
2022-08-09T00:16:26.143Z,3.08
2022-08-09T00:19:10.169Z,3.08
2022-08-09T00:21:55.675Z,3.70
2022-08-09T00:24:28.170Z,3.40
2022-08-09T00:26:59.858Z,4.25
2022-08-09T00:30:09.751Z,4.03
2022-08-09T00:32:35.736Z,3.65
2022-08-09T00:35:05.671Z,3.70
2022-08-09T00:37:36.591Z,4.13
2022-08-09T00:40:13.629Z,4.20
2022-08-09T00:44:16.636Z,4.05
2022-08-09T00:45:38.475Z,4.03
2022-08-09T00:48:22.783Z,3.85
2022-08-09T00:50:52.585Z,4.28
2022-08-09T00:53:24.086Z,3.78
2022-08-09T00:56:04.642Z,3.42
2022-08-09T00:58:36.986Z,3.35
2022-08-09T01:01:16.064Z,3.93
2022-08-09T01:03:52.149Z,3.53
2022-08-09T01:06:35.198Z,3.20
2022-08-09T01:09:26.333Z,3.35
2022-08-09T01:12:09.799Z,3.83
2022-08-09T01:14:48.074Z,4.20
2022-08-09T01:17:25.997Z,3.85
2022-08-09T01:20:03.357Z,3.75
2022-08-09T01:22:54.683Z,3.85
2022-08-09T01:25:48.789Z,3.70
2022-08-09T01:28:22.643Z,3.97
2022-08-09T01:30:59.062Z,3.70
2022-08-09T01:33:39.730Z,3.60
2022-08-09T01:36:11.001Z,3.63
2022-08-09T01:38:46.578Z,3.55
2022-08-09T01:41:17.856Z,3.42
2022-08-09T01:43:52.777Z,3.58
2022-08-09T01:46:26.483Z,3.97
2022-08-09T01:48:59.835Z,3.50
2022-08-09T01:51:32.976Z,3.90
2022-08-09T01:54:04.194Z,4.13
2022-08-09T01:56:38.208Z,3.38
2022-08-09T01:59:11.411Z,3.90
2022-08-09T02:02:00.359Z,4.05
2022-08-09T02:04:31.981Z,4.05
2022-08-09T02:07:17.803Z,4.88
2022-08-09T02:10:06.587Z,3.63
2022-08-09T02:12:37.452Z,4.30
2022-08-09T02:15:15.475Z,3.80
2022-08-09T02:18:00.292Z,4.40
2022-08-09T02:20:41.272Z,4.07
2022-08-09T02:23:17.631Z,4.05
2022-08-09T02:25:52.598Z,4.30
2022-08-09T02:28:24.050Z,3.63
2022-08-09T02:30:57.380Z,4.07
2022-08-09T02:33:38.170Z,4.10
2022-08-09T02:36:21.144Z,4.18
2022-08-09T02:38:53.145Z,3.80
2022-08-09T02:43:54.251Z,4.05
2022-08-09T02:46:28.727Z,4.55
2022-08-09T02:49:01.150Z,3.78
2022-08-09T02:51:40.287Z,3.70
2022-08-09T02:54:13.978Z,4.47
2022-08-09T02:56:51.177Z,3.88
2022-08-09T02:59:26.213Z,3.65
2022-08-09T03:02:11.884Z,4.55
2022-08-09T03:04:42.731Z,3.95
2022-08-09T03:07:14.527Z,3.92
2022-08-09T03:09:56.326Z,4.25
2022-08-09T03:12:26.465Z,3.88
2022-08-09T03:14:58.534Z,4.05
2022-08-09T03:17:30.614Z,3.55
2022-08-09T03:20:11.056Z,3.45
2022-08-09T03:22:56.838Z,3.63
2022-08-09T03:25:58.562Z,3.78
2022-08-09T03:28:17.381Z,3.03
2022-08-09T03:30:48.969Z,3.60
2022-08-09T03:33:21.013Z,3.85
2022-08-09T03:36:12.282Z,3.60
2022-08-09T03:38:44.615Z,3.50
2022-08-09T03:41:16.412Z,3.47
2022-08-09T03:44:03.341Z,3.38
2022-08-09T03:46:37.290Z,2.92
2022-08-09T03:49:11.060Z,3.65
2022-08-09T03:51:55.855Z,3.00
2022-08-09T03:54:31.384Z,3.60
2022-08-09T03:57:18.429Z,3.65
2022-08-09T03:59:53.553Z,3.72
2022-08-09T04:02:28.478Z,4.03
2022-08-09T04:05:01.359Z,4.10
2022-08-09T04:07:53.028Z,3.60
2022-08-09T04:10:29.195Z,3.67
2022-08-09T04:13:04.133Z,3.75
2022-08-09T04:16:17.143Z,4.20
2022-08-09T04:18:24.897Z,4.60
2022-08-09T04:20:56.067Z,4.32
2022-08-09T04:23:27.884Z,4.50
2022-08-09T04:25:58.631Z,3.95
2022-08-09T04:28:33.711Z,4.25
2022-08-09T04:31:08.160Z,3.70
2022-08-09T04:33:52.552Z,4.28
2022-08-09T04:36:28.787Z,4.43
2022-08-09T04:39:00.881Z,4.10
2022-08-09T04:41:32.264Z,3.72
2022-08-09T04:44:07.176Z,3.58
2022-08-09T04:46:58.909Z,3.55
2022-08-09T04:49:53.148Z,4.40
2022-08-09T04:52:27.549Z,4.13
2022-08-09T04:54:57.747Z,3.35
2022-08-09T04:57:59.258Z,4.68
2022-08-09T05:00:18.587Z,4.00
2022-08-09T05:02:48.766Z,3.58
2022-08-09T05:05:32.197Z,4.60
2022-08-09T05:08:15.132Z,3.55
2022-08-09T05:10:44.951Z,3.60
2022-08-09T05:13:15.026Z,4.45
2022-08-09T05:15:52.275Z,3.75
2022-08-09T05:18:37.736Z,3.20
2022-08-09T05:21:23.234Z,3.80
2022-08-09T05:24:00.982Z,3.65
2022-08-09T05:26:36.014Z,2.95
2022-08-09T05:29:21.854Z,3.55
2022-08-09T05:31:56.720Z,3.22
2022-08-09T05:34:30.631Z,3.20
2022-08-09T05:37:06.261Z,3.60
2022-08-09T05:39:42.636Z,3.50
2022-08-09T05:42:17.361Z,3.17
2022-08-09T05:44:54.225Z,3.38
2022-08-09T05:47:27.144Z,3.90
2022-08-09T05:50:32.343Z,3.90
2022-08-09T05:52:53.649Z,3.72
2022-08-09T05:55:25.173Z,3.60
2022-08-09T05:57:58.429Z,3.70
2022-08-09T06:00:29.703Z,4.82
2022-08-09T06:02:59.907Z,4.60
2022-08-09T06:05:56.904Z,5.35
2022-08-09T06:08:24.804Z,5.57
2022-08-09T06:10:57.015Z,5.97
2022-08-09T06:13:34.106Z,7.05
2022-08-09T06:16:05.257Z,7.05
2022-08-09T06:18:35.114Z,7.10
2022-08-09T06:21:06.610Z,7.00
2022-08-09T06:23:57.715Z,8.60
2022-08-09T06:26:28.560Z,8.80
2022-08-09T06:29:03.870Z,9.52
2022-08-09T06:31:39.996Z,8.52
2022-08-09T06:34:26.021Z,9.68
2022-08-09T06:36:59.199Z,8.98
2022-08-09T06:39:57.777Z,10.07
2022-08-09T06:42:24.773Z,9.18
2022-08-09T06:44:58.661Z,9.57
2022-08-09T06:47:29.990Z,11.02
2022-08-09T06:50:14.002Z,9.45
2022-08-09T06:52:48.550Z,9.88
2022-08-09T06:55:22.900Z,10.75
2022-08-09T06:58:02.661Z,8.35
2022-08-09T07:00:52.583Z,9.32
2022-08-09T07:03:27.960Z,10.45
2022-08-09T07:06:04.194Z,9.43
2022-08-09T07:08:35.271Z,10.05
2022-08-09T07:11:07.089Z,9.93
2022-08-09T07:13:45.315Z,10.02
2022-08-09T07:16:39.325Z,9.80
2022-08-09T07:19:15.776Z,12.02
2022-08-09T07:21:57.020Z,11.13
2022-08-09T07:24:32.357Z,8.88
2022-08-09T07:27:11.019Z,10.60
2022-08-09T07:30:00.575Z,10.55
2022-08-09T07:32:32.303Z,11.77
2022-08-09T07:35:03.800Z,10.60
2022-08-09T07:37:44.126Z,10.73
2022-08-09T07:40:17.665Z,11.95
2022-08-09T07:42:55.621Z,9.73
2022-08-09T07:45:39.372Z,9.30
2022-08-09T07:48:28.530Z,10.93
2022-08-09T07:51:10.262Z,11.32
2022-08-09T07:54:04.936Z,10.43
2022-08-09T07:56:44.887Z,8.98
2022-08-09T07:59:34.063Z,7.45
2022-08-09T08:02:19.410Z,8.30
2022-08-09T08:04:53.597Z,7.88
2022-08-09T08:08:06.208Z,8.05
2022-08-09T08:10:13.178Z,8.15
2022-08-09T08:12:45.515Z,8.18
2022-08-09T08:15:17.308Z,6.95
2022-08-09T08:17:53.314Z,6.60
2022-08-09T08:20:30.458Z,5.43
2022-08-09T08:23:16.410Z,5.80
2022-08-09T08:25:49.847Z,5.85
2022-08-09T08:28:32.401Z,5.75
2022-08-09T08:31:13.663Z,5.18
2022-08-09T08:33:53.811Z,5.55
2022-08-09T08:36:29.825Z,5.45
2022-08-09T08:39:00.440Z,6.00
2022-08-09T08:41:51.474Z,6.03
2022-08-09T08:44:26.997Z,5.25
2022-08-09T08:47:05.176Z,5.70
2022-08-09T08:49:48.534Z,6.38
2022-08-09T08:52:52.954Z,5.05
2022-08-09T08:55:09.676Z,5.35
2022-08-09T08:57:38.934Z,4.40
2022-08-09T09:00:17.154Z,4.78
2022-08-09T09:05:58.931Z,3.75
2022-08-09T09:08:29.341Z,3.45
2022-08-09T09:11:05.897Z,3.65
2022-08-09T09:13:47.318Z,3.70
2022-08-09T09:16:32.434Z,3.55
2022-08-09T09:22:00.554Z,3.10
2022-08-09T09:24:30.513Z,2.72
2022-08-09T09:27:02.883Z,2.80
2022-08-09T09:30:05.308Z,2.75
2022-08-09T09:32:34.309Z,3.55
2022-08-09T09:35:09.132Z,3.78
2022-08-09T09:37:41.012Z,3.58
2022-08-09T09:40:11.833Z,3.40
2022-08-09T09:42:42.806Z,2.72
2022-08-09T09:45:26.455Z,2.78
2022-08-09T09:47:59.246Z,3.08
2022-08-09T09:50:49.800Z,2.40
2022-08-09T09:53:34.436Z,2.83
2022-08-09T09:56:30.836Z,1.73
2022-08-09T09:59:00.789Z,2.75
2022-08-09T10:01:38.032Z,2.42
2022-08-09T10:04:16.337Z,2.00
2022-08-09T10:06:54.275Z,2.13
2022-08-09T10:09:25.175Z,2.03
2022-08-09T10:12:14.423Z,2.08
2022-08-09T10:14:50.030Z,1.80
2022-08-09T10:17:50.586Z,1.80
2022-08-09T10:20:27.330Z,1.25
2022-08-09T10:23:17.307Z,1.67
2022-08-09T10:26:07.297Z,1.15
2022-08-09T10:28:40.838Z,1.77
2022-08-09T10:34:11.033Z,1.30
2022-08-09T10:36:56.768Z,1.50
2022-08-09T10:39:40.995Z,1.50
2022-08-09T10:42:19.814Z,0.88
2022-08-09T10:44:50.213Z,1.30
2022-08-09T10:48:22.598Z,1.42
2022-08-09T10:50:31.232Z,1.30
2022-08-09T10:53:10.171Z,1.13
2022-08-09T10:55:58.715Z,0.90
2022-08-09T10:58:37.082Z,1.23
2022-08-09T11:03:02.462Z,0.85
2022-08-09T11:04:19.760Z,1.13
2022-08-09T11:07:17.925Z,1.30
2022-08-09T11:09:52.964Z,1.45
2022-08-09T11:12:29.922Z,1.35
2022-08-09T11:15:03.350Z,1.23
2022-08-09T11:17:53.458Z,1.52
2022-08-09T11:20:37.953Z,1.23
2022-08-09T11:23:10.395Z,1.30
2022-08-09T11:25:48.664Z,1.23
2022-08-09T11:28:38.365Z,1.48
2022-08-09T11:31:49.105Z,1.65
2022-08-09T11:34:24.935Z,1.85
2022-08-09T11:36:55.124Z,1.40
2022-08-09T11:39:37.900Z,1.45
2022-08-09T11:42:14.810Z,1.13
2022-08-09T11:44:49.157Z,0.98
2022-08-09T11:47:18.602Z,1.65
2022-08-09T11:50:54.186Z,1.10
2022-08-09T11:53:20.792Z,0.90
2022-08-09T11:56:23.077Z,1.40
2022-08-09T11:59:12.282Z,1.40
2022-08-09T12:02:34.845Z,1.00
2022-08-09T12:04:37.242Z,1.45
2022-08-09T12:07:08.925Z,0.98
2022-08-09T12:09:38.415Z,1.00
2022-08-09T12:12:13.212Z,0.93
2022-08-09T12:15:08.082Z,1.20
2022-08-09T12:17:44.526Z,0.90
2022-08-09T12:20:16.257Z,1.23
2022-08-09T12:22:50.895Z,1.40
2022-08-09T12:25:36.817Z,1.30
2022-08-09T12:29:12.695Z,1.10
2022-08-09T12:31:01.274Z,1.38
2022-08-09T12:33:35.566Z,2.58
2022-08-09T12:36:31.141Z,1.17
2022-08-09T12:39:04.434Z,1.08
2022-08-09T12:44:10.110Z,0.90
2022-08-09T12:46:49.192Z,1.52
2022-08-09T12:49:24.365Z,1.20
2022-08-09T12:52:01.990Z,1.50
2022-08-09T12:55:00.764Z,0.93
2022-08-09T12:57:39.960Z,1.42
2022-08-09T13:00:13.538Z,1.20
2022-08-09T13:02:54.452Z,1.67
2022-08-09T13:05:25.309Z,1.00
2022-08-09T13:08:14.471Z,1.40
2022-08-09T13:10:52.227Z,1.10
2022-08-09T13:13:38.318Z,1.00
2022-08-09T13:16:20.227Z,1.10
2022-08-09T13:18:54.017Z,0.90
2022-08-09T13:22:35.196Z,1.17
2022-08-09T13:24:52.562Z,1.15
2022-08-09T13:27:06.057Z,1.20
2022-08-09T13:30:02.761Z,0.98
2022-08-09T13:32:46.053Z,1.92
2022-08-09T13:35:21.169Z,0.80
2022-08-09T13:38:03.680Z,0.85
2022-08-09T13:41:50.735Z,1.27
2022-08-09T13:43:38.875Z,1.00
2022-08-09T13:47:17.834Z,1.08
2022-08-09T13:48:59.862Z,1.20
2022-08-09T13:51:30.679Z,1.35
2022-08-09T13:54:00.198Z,1.20
2022-08-09T13:56:30.220Z,1.08
2022-08-09T13:59:01.063Z,1.38
2022-08-09T14:01:56.763Z,1.10
2022-08-09T14:04:23.979Z,1.02
2022-08-09T14:06:56.673Z,1.30
2022-08-09T14:09:26.596Z,0.98
2022-08-09T14:11:57.235Z,1.10
2022-08-09T14:14:33.290Z,1.35
2022-08-09T14:17:06.304Z,1.23
2022-08-09T14:19:41.226Z,1.25
2022-08-09T14:22:12.035Z,0.95
2022-08-09T14:24:52.017Z,1.13
2022-08-09T14:30:36.360Z,1.27
2022-08-09T14:32:46.495Z,1.13
2022-08-09T14:35:16.289Z,0.70
2022-08-09T14:38:02.799Z,0.90
2022-08-09T14:40:39.021Z,1.52
2022-08-09T14:43:23.782Z,1.08
2022-08-09T14:46:58.523Z,1.52
2022-08-09T14:48:45.437Z,1.00
2022-08-09T14:53:48.679Z,0.95
2022-08-09T14:56:22.045Z,1.00
2022-08-09T14:58:56.490Z,0.98
2022-08-09T15:01:30.131Z,0.93
2022-08-09T15:04:01.390Z,0.80
2022-08-09T15:06:31.177Z,0.80
2022-08-09T15:09:03.712Z,1.02
2022-08-09T15:11:34.771Z,1.17
2022-08-09T15:14:12.945Z,1.10
2022-08-09T15:16:43.063Z,0.73
2022-08-09T15:19:16.097Z,0.82
2022-08-09T15:21:57.534Z,0.95
2022-08-09T15:24:31.310Z,1.48
2022-08-09T15:27:01.080Z,1.55
2022-08-09T15:31:00.739Z,0.52
2022-08-09T15:32:29.477Z,1.20
2022-08-09T15:35:17.902Z,0.70
2022-08-09T15:37:56.931Z,0.90
2022-08-09T15:40:37.960Z,1.77
2022-08-09T15:43:14.018Z,1.20
2022-08-09T15:45:52.018Z,0.98
2022-08-09T15:48:37.509Z,1.40
2022-08-09T15:51:30.016Z,1.17
2022-08-09T15:54:05.417Z,1.45
2022-08-09T15:56:37.355Z,1.20
2022-08-09T15:59:09.102Z,1.17
2022-08-09T16:01:39.354Z,0.65
2022-08-09T16:04:13.392Z,1.02
2022-08-09T16:06:50.257Z,1.10
2022-08-09T16:09:32.307Z,1.00
2022-08-09T16:12:11.204Z,0.82
2022-08-09T16:14:41.841Z,1.10
2022-08-09T16:17:11.909Z,1.00
2022-08-09T16:19:49.016Z,1.10
2022-08-09T16:22:35.324Z,2.08
2022-08-09T16:25:04.830Z,0.90
2022-08-09T16:27:36.175Z,0.88
2022-08-09T16:30:07.073Z,0.95
2022-08-09T16:32:54.480Z,0.85
2022-08-09T16:35:56.507Z,0.80
2022-08-09T16:38:18.098Z,0.98
2022-08-09T16:40:48.061Z,1.60
2022-08-09T16:43:18.102Z,1.00
2022-08-09T16:45:48.043Z,0.93
2022-08-09T16:48:40.589Z,0.90
2022-08-09T16:51:14.235Z,1.05
2022-08-09T16:56:36.775Z,1.63
2022-08-09T16:59:12.058Z,1.30
2022-08-09T17:01:42.275Z,1.15
2022-08-09T17:04:28.389Z,0.95
2022-08-09T17:08:41.376Z,0.85
2022-08-09T17:09:50.642Z,1.08
2022-08-09T17:12:20.370Z,0.77
2022-08-09T17:14:55.000Z,0.80
2022-08-09T17:17:27.996Z,1.05
2022-08-09T17:20:28.882Z,0.80
2022-08-09T17:22:52.464Z,2.38
2022-08-09T17:25:23.909Z,0.93
2022-08-09T17:27:54.880Z,1.40
2022-08-09T17:30:26.438Z,1.17
2022-08-09T17:33:01.482Z,0.80
2022-08-09T17:35:41.242Z,1.30
2022-08-09T17:38:32.111Z,1.27
2022-08-09T17:41:05.011Z,1.33
2022-08-09T17:43:37.185Z,0.90
2022-08-09T17:46:09.099Z,1.10
2022-08-09T17:48:52.071Z,1.10
2022-08-09T17:51:23.129Z,1.30
2022-08-09T17:53:55.585Z,1.40
2022-08-09T17:56:28.767Z,1.20
2022-08-09T17:58:59.773Z,1.20
2022-08-09T18:01:58.003Z,1.08
2022-08-09T18:04:21.678Z,2.10
2022-08-09T18:06:55.252Z,1.25
2022-08-09T18:09:41.109Z,1.42
2022-08-09T18:12:19.407Z,1.17
2022-08-09T18:14:55.012Z,1.40
2022-08-09T18:17:27.400Z,1.17
2022-08-09T18:21:00.523Z,1.55
2022-08-09T18:23:07.113Z,1.10
2022-08-09T18:25:50.695Z,1.23
2022-08-09T18:30:39.575Z,1.35
2022-08-09T18:31:24.937Z,1.30
2022-08-09T18:34:06.184Z,1.40
2022-08-09T18:36:36.380Z,2.95
2022-08-09T18:39:06.629Z,1.10
2022-08-09T18:41:36.984Z,1.25
2022-08-09T18:44:15.528Z,1.00
2022-08-09T18:47:04.965Z,1.08
2022-08-09T18:49:41.725Z,1.00
2022-08-09T18:52:13.335Z,1.05
2022-08-09T18:54:52.262Z,1.10
2022-08-09T18:57:23.114Z,0.60
2022-08-09T19:00:01.505Z,1.05
2022-08-09T19:02:33.424Z,1.10
2022-08-09T19:05:19.648Z,1.05
2022-08-09T19:07:59.380Z,2.00
2022-08-09T19:10:37.890Z,1.10
2022-08-09T19:13:22.035Z,1.05
2022-08-09T19:15:56.657Z,1.10
2022-08-09T19:18:33.351Z,0.95
2022-08-09T19:21:09.191Z,1.85
2022-08-09T19:24:33.118Z,1.02
2022-08-09T19:26:35.229Z,1.35
2022-08-09T19:29:15.538Z,0.80
2022-08-09T19:32:00.146Z,1.30
2022-08-09T19:34:29.483Z,0.60
2022-08-09T19:36:58.961Z,0.95
2022-08-09T19:40:02.667Z,0.90
2022-08-09T19:42:19.502Z,1.73
2022-08-09T19:44:51.278Z,1.30
2022-08-09T19:47:23.883Z,1.17
2022-08-09T19:50:06.876Z,2.72
2022-08-09T19:52:51.986Z,1.85
2022-08-09T19:55:30.418Z,1.67
2022-08-09T19:58:16.713Z,1.00
2022-08-09T20:00:47.441Z,1.75
2022-08-09T20:04:17.128Z,1.20
2022-08-09T20:06:10.533Z,1.30
2022-08-09T20:08:56.967Z,1.58
2022-08-09T20:11:33.955Z,1.35
2022-08-09T20:14:15.620Z,1.50
2022-08-09T20:16:53.801Z,1.38
2022-08-09T20:19:48.965Z,2.25
2022-08-09T20:22:14.839Z,1.17
2022-08-09T20:24:53.722Z,1.30
2022-08-09T20:27:23.614Z,1.70
2022-08-09T20:29:52.834Z,1.77
2022-08-09T20:32:30.562Z,2.15
2022-08-09T20:35:05.686Z,2.13
2022-08-09T20:38:08.688Z,2.00
2022-08-09T20:40:27.202Z,2.58
2022-08-09T20:43:00.366Z,1.73
2022-08-09T20:46:01.508Z,2.17
2022-08-09T20:48:42.681Z,2.08
2022-08-09T20:51:19.367Z,2.15
2022-08-09T20:53:49.230Z,1.90
2022-08-09T20:56:21.819Z,1.60
2022-08-09T20:58:54.590Z,2.63
2022-08-09T21:01:35.419Z,2.22
2022-08-09T21:05:54.350Z,2.08
2022-08-09T21:07:11.597Z,1.75
2022-08-09T21:09:45.674Z,2.30
2022-08-09T21:15:14.894Z,2.42
2022-08-09T21:18:23.135Z,3.00
2022-08-09T21:20:35.511Z,2.80
2022-08-09T21:23:13.012Z,2.22
2022-08-09T21:25:55.318Z,2.00
2022-08-09T21:28:34.513Z,2.13
2022-08-09T21:31:16.162Z,2.08
2022-08-09T21:33:51.544Z,2.45
2022-08-09T21:36:28.667Z,4.38
2022-08-09T21:39:00.637Z,2.47
2022-08-09T21:42:04.221Z,2.38
2022-08-09T21:44:33.068Z,2.05
2022-08-09T21:47:07.439Z,2.33
2022-08-09T21:49:39.142Z,2.15
2022-08-09T21:52:14.834Z,1.90
2022-08-09T21:54:59.499Z,2.50
2022-08-09T21:57:38.585Z,3.05
2022-08-09T22:00:25.361Z,2.38
2022-08-09T22:02:58.138Z,2.30
2022-08-09T22:08:04.720Z,2.22
2022-08-09T22:10:35.471Z,2.20
2022-08-09T22:13:24.789Z,2.85
2022-08-09T22:16:00.823Z,2.72
2022-08-09T22:21:09.241Z,2.28
2022-08-09T22:23:59.576Z,2.80
2022-08-09T22:26:34.919Z,2.40
2022-08-09T22:29:09.098Z,2.50
2022-08-09T22:31:50.344Z,3.05
2022-08-09T22:34:27.048Z,2.50
2022-08-09T22:36:56.814Z,2.40
2022-08-09T22:39:55.780Z,3.55
2022-08-09T22:42:21.530Z,3.58
2022-08-09T22:48:05.124Z,2.85
2022-08-09T22:48:30.108Z,2.92
2022-08-09T22:50:31.719Z,2.83
2022-08-09T22:53:03.595Z,3.40
2022-08-09T22:56:06.205Z,3.17
2022-08-09T22:58:32.817Z,3.13
2022-08-09T23:01:03.327Z,6.43
2022-08-09T23:04:05.469Z,17.00
2022-08-09T23:06:29.862Z,7.30
2022-08-09T23:09:05.732Z,4.10
2022-08-09T23:11:35.178Z,3.40
2022-08-09T23:14:09.765Z,3.72
2022-08-09T23:16:46.226Z,3.53
2022-08-09T23:19:15.700Z,3.70
2022-08-09T23:21:44.985Z,7.20
2022-08-09T23:24:14.313Z,7.15
2022-08-09T23:26:43.468Z,5.35
2022-08-09T23:29:14.554Z,4.22
2022-08-09T23:31:43.948Z,4.28
2022-08-09T23:34:12.920Z,3.47
2022-08-09T23:36:44.040Z,3.40
2022-08-09T23:39:13.498Z,3.30
2022-08-09T23:41:43.071Z,3.33
2022-08-09T23:44:12.173Z,3.95
2022-08-09T23:46:43.297Z,3.30
2022-08-09T23:49:12.677Z,3.40
2022-08-09T23:51:42.200Z,4.13
2022-08-09T23:54:11.617Z,3.40
2022-08-09T23:56:54.105Z,3.88
2022-08-09T23:59:48.681Z,4.50
